sensor_id;sensor_type;location;lat;lon;timestamp;P1;durP1;ratioP1;P2;durP2;ratioP2
41755;SDS011;27435;48.480;9.258;2023-04-23T00:02:01;4.17;;;1.70;;
41755;SDS011;27435;48.480;9.258;2023-04-23T00:04:27;6.27;;;1.70;;
41755;SDS011;27435;48.480;9.258;2023-04-23T00:06:53;5.73;;;1.53;;
41755;SDS011;27435;48.480;9.258;2023-04-23T00:09:19;6.50;;;1.80;;
41755;SDS011;27435;48.480;9.258;2023-04-23T00:11:47;3.90;;;1.47;;
41755;SDS011;27435;48.480;9.258;2023-04-23T00:14:13;4.10;;;2.10;;
41755;SDS011;27435;48.480;9.258;2023-04-23T00:16:40;5.73;;;2.00;;
41755;SDS011;27435;48.480;9.258;2023-04-23T00:19:05;4.97;;;2.07;;
41755;SDS011;27435;48.480;9.258;2023-04-23T00:21:31;6.00;;;2.03;;
41755;SDS011;27435;48.480;9.258;2023-04-23T00:23:57;5.50;;;1.70;;
41755;SDS011;27435;48.480;9.258;2023-04-23T00:26:23;3.53;;;1.73;;
41755;SDS011;27435;48.480;9.258;2023-04-23T00:28:48;7.30;;;2.00;;
41755;SDS011;27435;48.480;9.258;2023-04-23T00:31:14;6.13;;;1.70;;
41755;SDS011;27435;48.480;9.258;2023-04-23T00:33:40;5.23;;;1.83;;
41755;SDS011;27435;48.480;9.258;2023-04-23T00:36:05;6.10;;;1.80;;
41755;SDS011;27435;48.480;9.258;2023-04-23T00:38:31;5.47;;;1.80;;
41755;SDS011;27435;48.480;9.258;2023-04-23T00:40:57;5.03;;;1.70;;
41755;SDS011;27435;48.480;9.258;2023-04-23T00:43:23;3.80;;;1.40;;
41755;SDS011;27435;48.480;9.258;2023-04-23T00:45:48;4.83;;;2.30;;
41755;SDS011;27435;48.480;9.258;2023-04-23T00:48:15;7.07;;;2.40;;
41755;SDS011;27435;48.480;9.258;2023-04-23T00:50:41;9.73;;;1.50;;
41755;SDS011;27435;48.480;9.258;2023-04-23T00:53:06;8.23;;;1.70;;
41755;SDS011;27435;48.480;9.258;2023-04-23T00:55:32;4.80;;;1.50;;
41755;SDS011;27435;48.480;9.258;2023-04-23T00:57:58;4.57;;;1.80;;
41755;SDS011;27435;48.480;9.258;2023-04-23T01:00:24;4.37;;;1.80;;
41755;SDS011;27435;48.480;9.258;2023-04-23T01:02:51;4.60;;;1.27;;
41755;SDS011;27435;48.480;9.258;2023-04-23T01:05:17;3.57;;;1.43;;
41755;SDS011;27435;48.480;9.258;2023-04-23T01:07:45;3.17;;;1.37;;
41755;SDS011;27435;48.480;9.258;2023-04-23T01:10:11;3.07;;;1.37;;
41755;SDS011;27435;48.480;9.258;2023-04-23T01:12:38;4.27;;;1.83;;
41755;SDS011;27435;48.480;9.258;2023-04-23T01:15:04;4.03;;;1.43;;
41755;SDS011;27435;48.480;9.258;2023-04-23T01:17:31;6.37;;;1.83;;
41755;SDS011;27435;48.480;9.258;2023-04-23T01:19:58;5.83;;;1.60;;
41755;SDS011;27435;48.480;9.258;2023-04-23T01:22:23;3.17;;;1.50;;
41755;SDS011;27435;48.480;9.258;2023-04-23T01:24:49;7.07;;;1.53;;
41755;SDS011;27435;48.480;9.258;2023-04-23T01:27:16;4.53;;;1.67;;
41755;SDS011;27435;48.480;9.258;2023-04-23T01:29:43;7.43;;;1.73;;
41755;SDS011;27435;48.480;9.258;2023-04-23T01:32:11;5.07;;;1.77;;
41755;SDS011;27435;48.480;9.258;2023-04-23T01:34:37;5.67;;;1.83;;
41755;SDS011;27435;48.480;9.258;2023-04-23T01:37:03;5.13;;;1.63;;
41755;SDS011;27435;48.480;9.258;2023-04-23T01:39:29;5.17;;;1.30;;
41755;SDS011;27435;48.480;9.258;2023-04-23T01:41:55;4.90;;;1.50;;
41755;SDS011;27435;48.480;9.258;2023-04-23T01:44:21;2.63;;;1.60;;
41755;SDS011;27435;48.480;9.258;2023-04-23T01:46:47;1.93;;;1.10;;
41755;SDS011;27435;48.480;9.258;2023-04-23T01:49:12;2.70;;;1.00;;
41755;SDS011;27435;48.480;9.258;2023-04-23T01:51:38;2.47;;;1.20;;
41755;SDS011;27435;48.480;9.258;2023-04-23T01:54:04;3.10;;;1.20;;
41755;SDS011;27435;48.480;9.258;2023-04-23T01:56:30;1.90;;;1.10;;
41755;SDS011;27435;48.480;9.258;2023-04-23T01:58:58;3.73;;;1.20;;
41755;SDS011;27435;48.480;9.258;2023-04-23T02:01:23;3.30;;;1.03;;
41755;SDS011;27435;48.480;9.258;2023-04-23T02:03:49;4.83;;;1.60;;
41755;SDS011;27435;48.480;9.258;2023-04-23T02:06:15;3.27;;;1.10;;
41755;SDS011;27435;48.480;9.258;2023-04-23T02:08:41;3.07;;;1.20;;
41755;SDS011;27435;48.480;9.258;2023-04-23T02:11:06;3.97;;;1.77;;
41755;SDS011;27435;48.480;9.258;2023-04-23T02:13:32;4.00;;;1.13;;
41755;SDS011;27435;48.480;9.258;2023-04-23T02:15:58;4.20;;;1.53;;
41755;SDS011;27435;48.480;9.258;2023-04-23T02:18:24;2.60;;;1.30;;
41755;SDS011;27435;48.480;9.258;2023-04-23T02:20:49;4.17;;;0.90;;
41755;SDS011;27435;48.480;9.258;2023-04-23T02:23:15;2.30;;;1.07;;
41755;SDS011;27435;48.480;9.258;2023-04-23T02:25:41;2.00;;;0.90;;
41755;SDS011;27435;48.480;9.258;2023-04-23T02:28:07;4.13;;;1.00;;
41755;SDS011;27435;48.480;9.258;2023-04-23T02:30:35;4.03;;;1.00;;
41755;SDS011;27435;48.480;9.258;2023-04-23T02:33:01;2.10;;;1.10;;
41755;SDS011;27435;48.480;9.258;2023-04-23T02:35:27;3.10;;;1.10;;
41755;SDS011;27435;48.480;9.258;2023-04-23T02:37:54;5.13;;;1.07;;
41755;SDS011;27435;48.480;9.258;2023-04-23T02:40:20;7.20;;;1.07;;
41755;SDS011;27435;48.480;9.258;2023-04-23T02:42:46;2.20;;;1.00;;
41755;SDS011;27435;48.480;9.258;2023-04-23T02:45:11;5.27;;;1.00;;
41755;SDS011;27435;48.480;9.258;2023-04-23T02:47:37;2.43;;;1.00;;
41755;SDS011;27435;48.480;9.258;2023-04-23T02:50:06;1.60;;;0.93;;
41755;SDS011;27435;48.480;9.258;2023-04-23T02:52:32;1.80;;;0.90;;
41755;SDS011;27435;48.480;9.258;2023-04-23T02:54:58;2.90;;;1.30;;
41755;SDS011;27435;48.480;9.258;2023-04-23T02:57:26;2.10;;;0.93;;
41755;SDS011;27435;48.480;9.258;2023-04-23T02:59:52;2.30;;;1.10;;
41755;SDS011;27435;48.480;9.258;2023-04-23T03:02:18;3.53;;;1.03;;
41755;SDS011;27435;48.480;9.258;2023-04-23T03:04:43;2.20;;;1.00;;
41755;SDS011;27435;48.480;9.258;2023-04-23T03:07:10;2.70;;;1.20;;
41755;SDS011;27435;48.480;9.258;2023-04-23T03:09:37;4.47;;;1.20;;
41755;SDS011;27435;48.480;9.258;2023-04-23T03:12:03;2.53;;;1.30;;
41755;SDS011;27435;48.480;9.258;2023-04-23T03:14:28;2.50;;;1.40;;
41755;SDS011;27435;48.480;9.258;2023-04-23T03:16:54;2.93;;;1.07;;
41755;SDS011;27435;48.480;9.258;2023-04-23T03:19:20;3.27;;;1.20;;
41755;SDS011;27435;48.480;9.258;2023-04-23T03:21:45;4.40;;;1.57;;
41755;SDS011;27435;48.480;9.258;2023-04-23T03:24:11;2.73;;;1.37;;
41755;SDS011;27435;48.480;9.258;2023-04-23T03:26:39;4.50;;;1.30;;
41755;SDS011;27435;48.480;9.258;2023-04-23T03:29:04;2.90;;;1.40;;
41755;SDS011;27435;48.480;9.258;2023-04-23T03:31:30;1.67;;;1.00;;
41755;SDS011;27435;48.480;9.258;2023-04-23T03:33:56;3.77;;;1.40;;
41755;SDS011;27435;48.480;9.258;2023-04-23T03:36:22;3.43;;;1.47;;
41755;SDS011;27435;48.480;9.258;2023-04-23T03:38:47;3.17;;;1.67;;
41755;SDS011;27435;48.480;9.258;2023-04-23T03:41:13;2.63;;;1.60;;
41755;SDS011;27435;48.480;9.258;2023-04-23T03:43:38;3.77;;;1.70;;
41755;SDS011;27435;48.480;9.258;2023-04-23T03:46:04;4.47;;;1.83;;
41755;SDS011;27435;48.480;9.258;2023-04-23T03:48:30;2.33;;;1.43;;
41755;SDS011;27435;48.480;9.258;2023-04-23T03:50:56;2.80;;;1.60;;
41755;SDS011;27435;48.480;9.258;2023-04-23T03:53:22;3.53;;;1.60;;
41755;SDS011;27435;48.480;9.258;2023-04-23T03:55:47;5.20;;;1.90;;
41755;SDS011;27435;48.480;9.258;2023-04-23T03:58:13;2.50;;;1.20;;
41755;SDS011;27435;48.480;9.258;2023-04-23T04:00:39;3.47;;;1.50;;
41755;SDS011;27435;48.480;9.258;2023-04-23T04:03:05;3.67;;;1.73;;
41755;SDS011;27435;48.480;9.258;2023-04-23T04:05:32;4.00;;;2.10;;
41755;SDS011;27435;48.480;9.258;2023-04-23T04:07:59;4.17;;;2.10;;
41755;SDS011;27435;48.480;9.258;2023-04-23T04:10:25;4.57;;;1.60;;
41755;SDS011;27435;48.480;9.258;2023-04-23T04:12:51;2.63;;;1.73;;
41755;SDS011;27435;48.480;9.258;2023-04-23T04:15:19;6.07;;;2.00;;
41755;SDS011;27435;48.480;9.258;2023-04-23T04:17:45;5.73;;;1.87;;
41755;SDS011;27435;48.480;9.258;2023-04-23T04:20:10;3.53;;;1.73;;
41755;SDS011;27435;48.480;9.258;2023-04-23T04:22:36;5.00;;;1.50;;
41755;SDS011;27435;48.480;9.258;2023-04-23T04:25:02;2.60;;;1.27;;
41755;SDS011;27435;48.480;9.258;2023-04-23T04:27:29;2.53;;;1.30;;
41755;SDS011;27435;48.480;9.258;2023-04-23T04:29:57;3.97;;;1.17;;
41755;SDS011;27435;48.480;9.258;2023-04-23T04:32:25;2.17;;;1.07;;
41755;SDS011;27435;48.480;9.258;2023-04-23T04:34:51;2.37;;;0.90;;
41755;SDS011;27435;48.480;9.258;2023-04-23T04:37:18;4.13;;;0.80;;
41755;SDS011;27435;48.480;9.258;2023-04-23T04:39:44;1.60;;;0.70;;
41755;SDS011;27435;48.480;9.258;2023-04-23T04:42:10;0.93;;;0.50;;
41755;SDS011;27435;48.480;9.258;2023-04-23T04:44:37;2.73;;;0.60;;
41755;SDS011;27435;48.480;9.258;2023-04-23T04:47:03;1.60;;;0.90;;
41755;SDS011;27435;48.480;9.258;2023-04-23T04:49:29;1.17;;;0.60;;
41755;SDS011;27435;48.480;9.258;2023-04-23T04:51:55;2.40;;;1.07;;
41755;SDS011;27435;48.480;9.258;2023-04-23T04:54:20;2.63;;;0.83;;
41755;SDS011;27435;48.480;9.258;2023-04-23T04:56:46;1.93;;;0.90;;
41755;SDS011;27435;48.480;9.258;2023-04-23T04:59:12;3.23;;;0.70;;
41755;SDS011;27435;48.480;9.258;2023-04-23T05:01:37;2.00;;;0.90;;
41755;SDS011;27435;48.480;9.258;2023-04-23T05:04:03;1.57;;;0.60;;
41755;SDS011;27435;48.480;9.258;2023-04-23T05:06:29;1.80;;;1.07;;
41755;SDS011;27435;48.480;9.258;2023-04-23T05:08:56;2.60;;;0.83;;
41755;SDS011;27435;48.480;9.258;2023-04-23T05:11:21;1.87;;;0.70;;
41755;SDS011;27435;48.480;9.258;2023-04-23T05:13:47;0.93;;;0.50;;
41755;SDS011;27435;48.480;9.258;2023-04-23T05:16:13;1.17;;;0.50;;
41755;SDS011;27435;48.480;9.258;2023-04-23T05:18:39;1.33;;;0.50;;
41755;SDS011;27435;48.480;9.258;2023-04-23T05:21:06;2.10;;;0.70;;
41755;SDS011;27435;48.480;9.258;2023-04-23T05:23:32;1.73;;;0.50;;
41755;SDS011;27435;48.480;9.258;2023-04-23T05:25:58;0.60;;;0.30;;
41755;SDS011;27435;48.480;9.258;2023-04-23T05:28:24;2.40;;;0.60;;
41755;SDS011;27435;48.480;9.258;2023-04-23T05:30:50;1.43;;;0.50;;
41755;SDS011;27435;48.480;9.258;2023-04-23T05:33:16;1.03;;;0.57;;
41755;SDS011;27435;48.480;9.258;2023-04-23T05:35:42;1.30;;;0.50;;
41755;SDS011;27435;48.480;9.258;2023-04-23T05:38:08;2.17;;;0.70;;
41755;SDS011;27435;48.480;9.258;2023-04-23T05:40:34;3.30;;;0.47;;
41755;SDS011;27435;48.480;9.258;2023-04-23T05:43:00;1.80;;;0.53;;
41755;SDS011;27435;48.480;9.258;2023-04-23T05:45:26;1.10;;;0.50;;
41755;SDS011;27435;48.480;9.258;2023-04-23T05:47:52;1.60;;;0.50;;
41755;SDS011;27435;48.480;9.258;2023-04-23T05:50:18;1.30;;;0.50;;
41755;SDS011;27435;48.480;9.258;2023-04-23T05:52:44;3.03;;;0.57;;
41755;SDS011;27435;48.480;9.258;2023-04-23T05:55:11;0.83;;;0.50;;
41755;SDS011;27435;48.480;9.258;2023-04-23T05:57:39;1.37;;;0.73;;
41755;SDS011;27435;48.480;9.258;2023-04-23T06:00:06;1.70;;;1.03;;
41755;SDS011;27435;48.480;9.258;2023-04-23T06:02:38;1.27;;;0.60;;
41755;SDS011;27435;48.480;9.258;2023-04-23T06:05:05;1.00;;;0.50;;
41755;SDS011;27435;48.480;9.258;2023-04-23T06:07:31;1.03;;;0.50;;
41755;SDS011;27435;48.480;9.258;2023-04-23T06:09:58;1.43;;;0.57;;
41755;SDS011;27435;48.480;9.258;2023-04-23T06:12:23;0.70;;;0.40;;
41755;SDS011;27435;48.480;9.258;2023-04-23T06:14:50;1.30;;;0.60;;
41755;SDS011;27435;48.480;9.258;2023-04-23T06:17:17;0.80;;;0.40;;
41755;SDS011;27435;48.480;9.258;2023-04-23T06:19:42;4.60;;;0.70;;
41755;SDS011;27435;48.480;9.258;2023-04-23T06:22:08;1.40;;;0.50;;
41755;SDS011;27435;48.480;9.258;2023-04-23T06:24:34;1.80;;;0.60;;
41755;SDS011;27435;48.480;9.258;2023-04-23T06:26:59;1.27;;;0.30;;
41755;SDS011;27435;48.480;9.258;2023-04-23T06:29:26;2.63;;;0.50;;
41755;SDS011;27435;48.480;9.258;2023-04-23T06:31:55;1.80;;;0.40;;
41755;SDS011;27435;48.480;9.258;2023-04-23T06:34:22;0.47;;;0.30;;
41755;SDS011;27435;48.480;9.258;2023-04-23T06:36:49;0.97;;;0.40;;
41755;SDS011;27435;48.480;9.258;2023-04-23T06:39:15;0.97;;;0.47;;
41755;SDS011;27435;48.480;9.258;2023-04-23T06:41:40;1.13;;;0.40;;
41755;SDS011;27435;48.480;9.258;2023-04-23T06:44:06;1.83;;;0.50;;
41755;SDS011;27435;48.480;9.258;2023-04-23T06:46:32;1.45;;;0.65;;
41755;SDS011;27435;48.480;9.258;2023-04-23T06:48:57;0.60;;;0.30;;
41755;SDS011;27435;48.480;9.258;2023-04-23T06:51:26;0.75;;;0.50;;
41755;SDS011;27435;48.480;9.258;2023-04-23T06:53:52;1.20;;;0.30;;
41755;SDS011;27435;48.480;9.258;2023-04-23T06:56:18;1.92;;;0.40;;
41755;SDS011;27435;48.480;9.258;2023-04-23T06:58:45;2.28;;;0.40;;
41755;SDS011;27435;48.480;9.258;2023-04-23T07:01:11;1.48;;;0.40;;
41755;SDS011;27435;48.480;9.258;2023-04-23T07:03:37;1.20;;;0.30;;
41755;SDS011;27435;48.480;9.258;2023-04-23T07:06:03;1.20;;;0.55;;
41755;SDS011;27435;48.480;9.258;2023-04-23T07:08:29;3.28;;;0.88;;
41755;SDS011;27435;48.480;9.258;2023-04-23T07:10:55;3.15;;;0.52;;
41755;SDS011;27435;48.480;9.258;2023-04-23T07:13:20;1.15;;;0.50;;
41755;SDS011;27435;48.480;9.258;2023-04-23T07:15:46;0.93;;;0.40;;
41755;SDS011;27435;48.480;9.258;2023-04-23T07:18:13;1.35;;;0.40;;
41755;SDS011;27435;48.480;9.258;2023-04-23T07:20:39;1.17;;;0.60;;
41755;SDS011;27435;48.480;9.258;2023-04-23T07:23:04;0.52;;;0.30;;
41755;SDS011;27435;48.480;9.258;2023-04-23T07:25:30;1.45;;;0.32;;
41755;SDS011;27435;48.480;9.258;2023-04-23T07:27:56;0.95;;;0.40;;
41755;SDS011;27435;48.480;9.258;2023-04-23T07:30:22;0.80;;;0.70;;
41755;SDS011;27435;48.480;9.258;2023-04-23T07:32:49;1.48;;;0.40;;
41755;SDS011;27435;48.480;9.258;2023-04-23T07:35:15;3.17;;;0.70;;
41755;SDS011;27435;48.480;9.258;2023-04-23T07:37:40;2.95;;;0.50;;
41755;SDS011;27435;48.480;9.258;2023-04-23T07:40:06;0.95;;;0.43;;
41755;SDS011;27435;48.480;9.258;2023-04-23T07:42:33;1.83;;;0.50;;
41755;SDS011;27435;48.480;9.258;2023-04-23T07:44:58;1.83;;;0.77;;
41755;SDS011;27435;48.480;9.258;2023-04-23T07:47:24;0.88;;;0.30;;
41755;SDS011;27435;48.480;9.258;2023-04-23T07:49:50;0.65;;;0.35;;
41755;SDS011;27435;48.480;9.258;2023-04-23T07:52:16;2.47;;;0.57;;
41755;SDS011;27435;48.480;9.258;2023-04-23T07:54:41;1.55;;;0.50;;
41755;SDS011;27435;48.480;9.258;2023-04-23T07:57:08;1.02;;;0.52;;
41755;SDS011;27435;48.480;9.258;2023-04-23T07:59:35;1.20;;;0.40;;
41755;SDS011;27435;48.480;9.258;2023-04-23T08:02:03;1.63;;;0.75;;
41755;SDS011;27435;48.480;9.258;2023-04-23T08:04:28;1.88;;;0.40;;
41755;SDS011;27435;48.480;9.258;2023-04-23T08:06:54;1.45;;;0.50;;
41755;SDS011;27435;48.480;9.258;2023-04-23T08:09:20;5.20;;;2.25;;
41755;SDS011;27435;48.480;9.258;2023-04-23T08:11:45;2.38;;;1.17;;
41755;SDS011;27435;48.480;9.258;2023-04-23T08:14:12;0.85;;;0.50;;
41755;SDS011;27435;48.480;9.258;2023-04-23T08:16:38;2.28;;;1.00;;
41755;SDS011;27435;48.480;9.258;2023-04-23T08:19:03;1.00;;;0.38;;
41755;SDS011;27435;48.480;9.258;2023-04-23T08:21:30;1.30;;;0.73;;
41755;SDS011;27435;48.480;9.258;2023-04-23T08:23:56;1.02;;;0.45;;
41755;SDS011;27435;48.480;9.258;2023-04-23T08:26:22;0.80;;;0.40;;
41755;SDS011;27435;48.480;9.258;2023-04-23T08:28:48;2.80;;;0.82;;
41755;SDS011;27435;48.480;9.258;2023-04-23T08:31:13;6.20;;;0.63;;
41755;SDS011;27435;48.480;9.258;2023-04-23T08:33:40;1.27;;;0.50;;
41755;SDS011;27435;48.480;9.258;2023-04-23T08:36:06;2.45;;;0.50;;
41755;SDS011;27435;48.480;9.258;2023-04-23T08:38:31;1.80;;;0.30;;
41755;SDS011;27435;48.480;9.258;2023-04-23T08:40:58;0.60;;;0.30;;
41755;SDS011;27435;48.480;9.258;2023-04-23T08:43:27;1.80;;;0.57;;
41755;SDS011;27435;48.480;9.258;2023-04-23T08:45:59;1.20;;;0.50;;
41755;SDS011;27435;48.480;9.258;2023-04-23T08:48:30;4.00;;;0.40;;
41755;SDS011;27435;48.480;9.258;2023-04-23T08:50:58;2.28;;;0.43;;
41755;SDS011;27435;48.480;9.258;2023-04-23T08:53:26;0.98;;;0.50;;
41755;SDS011;27435;48.480;9.258;2023-04-23T08:55:53;1.35;;;0.50;;
41755;SDS011;27435;48.480;9.258;2023-04-23T08:58:20;2.05;;;0.50;;
41755;SDS011;27435;48.480;9.258;2023-04-23T09:00:47;1.42;;;0.47;;
41755;SDS011;27435;48.480;9.258;2023-04-23T09:03:13;1.63;;;0.60;;
41755;SDS011;27435;48.480;9.258;2023-04-23T09:05:41;1.42;;;0.60;;
41755;SDS011;27435;48.480;9.258;2023-04-23T09:08:07;1.15;;;0.52;;
41755;SDS011;27435;48.480;9.258;2023-04-23T09:10:34;1.73;;;0.63;;
41755;SDS011;27435;48.480;9.258;2023-04-23T09:13:04;3.28;;;0.55;;
41755;SDS011;27435;48.480;9.258;2023-04-23T09:15:29;1.20;;;0.60;;
41755;SDS011;27435;48.480;9.258;2023-04-23T09:17:55;3.72;;;0.85;;
41755;SDS011;27435;48.480;9.258;2023-04-23T09:20:22;2.67;;;0.60;;
41755;SDS011;27435;48.480;9.258;2023-04-23T09:22:48;1.92;;;0.60;;
41755;SDS011;27435;48.480;9.258;2023-04-23T09:25:18;2.90;;;0.60;;
41755;SDS011;27435;48.480;9.258;2023-04-23T09:27:46;2.22;;;0.60;;
41755;SDS011;27435;48.480;9.258;2023-04-23T09:30:13;4.80;;;1.13;;
41755;SDS011;27435;48.480;9.258;2023-04-23T09:32:40;5.05;;;0.57;;
41755;SDS011;27435;48.480;9.258;2023-04-23T09:35:08;2.85;;;0.60;;
41755;SDS011;27435;48.480;9.258;2023-04-23T09:37:36;1.70;;;0.70;;
41755;SDS011;27435;48.480;9.258;2023-04-23T09:40:05;1.58;;;0.70;;
41755;SDS011;27435;48.480;9.258;2023-04-23T09:42:35;1.83;;;0.63;;
41755;SDS011;27435;48.480;9.258;2023-04-23T09:45:05;2.88;;;0.65;;
41755;SDS011;27435;48.480;9.258;2023-04-23T09:47:32;1.15;;;0.50;;
41755;SDS011;27435;48.480;9.258;2023-04-23T09:50:01;1.25;;;0.60;;
41755;SDS011;27435;48.480;9.258;2023-04-23T09:52:29;2.10;;;0.68;;
41755;SDS011;27435;48.480;9.258;2023-04-23T09:55:02;1.75;;;0.75;;
41755;SDS011;27435;48.480;9.258;2023-04-23T09:57:29;1.85;;;0.68;;
41755;SDS011;27435;48.480;9.258;2023-04-23T09:59:59;1.15;;;0.57;;
41755;SDS011;27435;48.480;9.258;2023-04-23T10:02:50;2.75;;;0.68;;
41755;SDS011;27435;48.480;9.258;2023-04-23T10:05:16;2.28;;;0.85;;
41755;SDS011;27435;48.480;9.258;2023-04-23T10:07:44;1.65;;;0.80;;
41755;SDS011;27435;48.480;9.258;2023-04-23T10:10:16;2.38;;;1.15;;
41755;SDS011;27435;48.480;9.258;2023-04-23T10:12:43;2.05;;;0.85;;
41755;SDS011;27435;48.480;9.258;2023-04-23T10:15:10;2.50;;;0.82;;
41755;SDS011;27435;48.480;9.258;2023-04-23T10:17:37;1.80;;;0.80;;
41755;SDS011;27435;48.480;9.258;2023-04-23T10:20:04;2.10;;;0.90;;
41755;SDS011;27435;48.480;9.258;2023-04-23T10:22:32;2.35;;;1.33;;
41755;SDS011;27435;48.480;9.258;2023-04-23T10:24:59;1.85;;;0.80;;
41755;SDS011;27435;48.480;9.258;2023-04-23T10:27:30;2.33;;;0.90;;
41755;SDS011;27435;48.480;9.258;2023-04-23T10:29:57;2.65;;;0.90;;
41755;SDS011;27435;48.480;9.258;2023-04-23T10:32:24;1.63;;;0.60;;
41755;SDS011;27435;48.480;9.258;2023-04-23T10:34:52;2.58;;;0.80;;
41755;SDS011;27435;48.480;9.258;2023-04-23T10:37:18;1.70;;;0.70;;
41755;SDS011;27435;48.480;9.258;2023-04-23T10:39:47;2.72;;;0.80;;
41755;SDS011;27435;48.480;9.258;2023-04-23T10:42:15;1.25;;;0.60;;
41755;SDS011;27435;48.480;9.258;2023-04-23T10:44:41;1.42;;;0.65;;
41755;SDS011;27435;48.480;9.258;2023-04-23T10:47:11;2.67;;;0.95;;
41755;SDS011;27435;48.480;9.258;2023-04-23T10:49:38;3.13;;;0.85;;
41755;SDS011;27435;48.480;9.258;2023-04-23T10:52:07;1.65;;;0.68;;
41755;SDS011;27435;48.480;9.258;2023-04-23T10:54:39;0.93;;;0.47;;
41755;SDS011;27435;48.480;9.258;2023-04-23T10:57:06;1.55;;;0.65;;
41755;SDS011;27435;48.480;9.258;2023-04-23T10:59:33;2.38;;;0.68;;
41755;SDS011;27435;48.480;9.258;2023-04-23T11:02:04;1.02;;;0.52;;
41755;SDS011;27435;48.480;9.258;2023-04-23T11:04:35;3.47;;;0.70;;
41755;SDS011;27435;48.480;9.258;2023-04-23T11:07:07;3.05;;;0.60;;
41755;SDS011;27435;48.480;9.258;2023-04-23T11:09:38;1.42;;;0.60;;
41755;SDS011;27435;48.480;9.258;2023-04-23T11:12:29;1.38;;;0.50;;
41755;SDS011;27435;48.480;9.258;2023-04-23T11:14:58;2.60;;;0.50;;
41755;SDS011;27435;48.480;9.258;2023-04-23T11:22:43;2.13;;;0.50;;
41755;SDS011;27435;48.480;9.258;2023-04-23T11:25:11;1.60;;;0.55;;
41755;SDS011;27435;48.480;9.258;2023-04-23T11:27:38;0.88;;;0.50;;
41755;SDS011;27435;48.480;9.258;2023-04-23T11:30:13;1.10;;;0.57;;
41755;SDS011;27435;48.480;9.258;2023-04-23T11:32:40;1.60;;;0.60;;
41755;SDS011;27435;48.480;9.258;2023-04-23T11:35:09;2.22;;;0.60;;
41755;SDS011;27435;48.480;9.258;2023-04-23T11:37:38;1.88;;;0.60;;
41755;SDS011;27435;48.480;9.258;2023-04-23T11:40:08;2.58;;;0.68;;
41755;SDS011;27435;48.480;9.258;2023-04-23T11:42:42;1.50;;;0.80;;
41755;SDS011;27435;48.480;9.258;2023-04-23T11:45:14;2.08;;;0.60;;
41755;SDS011;27435;48.480;9.258;2023-04-23T11:47:40;0.85;;;0.43;;
41755;SDS011;27435;48.480;9.258;2023-04-23T11:50:07;1.38;;;0.57;;
41755;SDS011;27435;48.480;9.258;2023-04-23T11:52:33;1.58;;;0.40;;
41755;SDS011;27435;48.480;9.258;2023-04-23T11:55:02;2.13;;;0.60;;
41755;SDS011;27435;48.480;9.258;2023-04-23T11:57:33;2.47;;;0.55;;
41755;SDS011;27435;48.480;9.258;2023-04-23T12:00:09;0.60;;;0.30;;
41755;SDS011;27435;48.480;9.258;2023-04-23T12:02:55;1.73;;;0.40;;
41755;SDS011;27435;48.480;9.258;2023-04-23T12:05:32;3.35;;;0.73;;
41755;SDS011;27435;48.480;9.258;2023-04-23T12:08:16;1.13;;;0.50;;
41755;SDS011;27435;48.480;9.258;2023-04-23T12:10:48;0.93;;;0.40;;
41755;SDS011;27435;48.480;9.258;2023-04-23T12:13:15;2.47;;;0.65;;
41755;SDS011;27435;48.480;9.258;2023-04-23T12:15:43;3.40;;;0.60;;
41755;SDS011;27435;48.480;9.258;2023-04-23T12:18:14;2.00;;;0.60;;
41755;SDS011;27435;48.480;9.258;2023-04-23T12:20:40;1.10;;;0.40;;
41755;SDS011;27435;48.480;9.258;2023-04-23T12:23:05;1.55;;;0.40;;
41755;SDS011;27435;48.480;9.258;2023-04-23T12:25:32;0.93;;;0.38;;
41755;SDS011;27435;48.480;9.258;2023-04-23T12:27:58;1.55;;;0.50;;
41755;SDS011;27435;48.480;9.258;2023-04-23T12:30:27;1.00;;;0.40;;
41755;SDS011;27435;48.480;9.258;2023-04-23T12:32:59;0.98;;;0.50;;
41755;SDS011;27435;48.480;9.258;2023-04-23T12:35:39;2.15;;;0.82;;
41755;SDS011;27435;48.480;9.258;2023-04-23T12:38:05;4.00;;;0.80;;
41755;SDS011;27435;48.480;9.258;2023-04-23T12:40:31;0.82;;;0.40;;
41755;SDS011;27435;48.480;9.258;2023-04-23T12:42:58;2.20;;;0.70;;
41755;SDS011;27435;48.480;9.258;2023-04-23T12:45:24;1.98;;;0.90;;
41755;SDS011;27435;48.480;9.258;2023-04-23T12:47:50;1.33;;;0.65;;
41755;SDS011;27435;48.480;9.258;2023-04-23T12:50:15;2.88;;;0.98;;
41755;SDS011;27435;48.480;9.258;2023-04-23T12:52:41;1.60;;;0.70;;
41755;SDS011;27435;48.480;9.258;2023-04-23T12:55:07;1.15;;;0.47;;
41755;SDS011;27435;48.480;9.258;2023-04-23T12:57:32;3.53;;;0.82;;
41755;SDS011;27435;48.480;9.258;2023-04-23T12:59:58;1.95;;;0.57;;
41755;SDS011;27435;48.480;9.258;2023-04-23T13:02:24;2.72;;;0.60;;
41755;SDS011;27435;48.480;9.258;2023-04-23T13:04:50;1.17;;;0.55;;
41755;SDS011;27435;48.480;9.258;2023-04-23T13:07:15;1.27;;;0.55;;
41755;SDS011;27435;48.480;9.258;2023-04-23T13:09:41;1.30;;;0.45;;
41755;SDS011;27435;48.480;9.258;2023-04-23T13:12:07;2.95;;;0.57;;
41755;SDS011;27435;48.480;9.258;2023-04-23T13:14:33;2.50;;;0.55;;
41755;SDS011;27435;48.480;9.258;2023-04-23T13:16:58;2.15;;;0.50;;
41755;SDS011;27435;48.480;9.258;2023-04-23T13:19:24;1.67;;;0.55;;
41755;SDS011;27435;48.480;9.258;2023-04-23T13:21:50;2.20;;;0.77;;
41755;SDS011;27435;48.480;9.258;2023-04-23T13:24:15;0.93;;;0.52;;
41755;SDS011;27435;48.480;9.258;2023-04-23T13:26:41;3.10;;;0.60;;
41755;SDS011;27435;48.480;9.258;2023-04-23T13:29:07;3.70;;;0.85;;
41755;SDS011;27435;48.480;9.258;2023-04-23T13:31:33;3.55;;;0.70;;
41755;SDS011;27435;48.480;9.258;2023-04-23T13:33:58;1.67;;;0.60;;
41755;SDS011;27435;48.480;9.258;2023-04-23T13:36:26;2.00;;;0.60;;
41755;SDS011;27435;48.480;9.258;2023-04-23T13:38:52;3.63;;;0.70;;
41755;SDS011;27435;48.480;9.258;2023-04-23T13:41:18;2.97;;;0.70;;
41755;SDS011;27435;48.480;9.258;2023-04-23T13:43:43;1.50;;;0.60;;
41755;SDS011;27435;48.480;9.258;2023-04-23T13:46:09;2.22;;;0.82;;
41755;SDS011;27435;48.480;9.258;2023-04-23T13:48:35;3.25;;;0.98;;
41755;SDS011;27435;48.480;9.258;2023-04-23T13:51:00;2.38;;;0.80;;
41755;SDS011;27435;48.480;9.258;2023-04-23T13:53:26;3.42;;;0.70;;
41755;SDS011;27435;48.480;9.258;2023-04-23T13:55:53;1.85;;;0.50;;
41755;SDS011;27435;48.480;9.258;2023-04-23T13:58:19;1.30;;;0.55;;
41755;SDS011;27435;48.480;9.258;2023-04-23T14:00:45;4.20;;;1.08;;
41755;SDS011;27435;48.480;9.258;2023-04-23T14:03:11;2.78;;;1.25;;
41755;SDS011;27435;48.480;9.258;2023-04-23T14:05:37;2.88;;;0.70;;
41755;SDS011;27435;48.480;9.258;2023-04-23T14:08:02;3.47;;;0.73;;
41755;SDS011;27435;48.480;9.258;2023-04-23T14:10:28;1.60;;;0.70;;
41755;SDS011;27435;48.480;9.258;2023-04-23T14:12:54;2.30;;;0.60;;
41755;SDS011;27435;48.480;9.258;2023-04-23T14:15:20;2.40;;;1.25;;
41755;SDS011;27435;48.480;9.258;2023-04-23T14:17:46;1.42;;;0.73;;
41755;SDS011;27435;48.480;9.258;2023-04-23T14:20:11;3.35;;;0.80;;
41755;SDS011;27435;48.480;9.258;2023-04-23T14:22:41;2.92;;;1.02;;
41755;SDS011;27435;48.480;9.258;2023-04-23T14:25:08;2.50;;;0.80;;
41755;SDS011;27435;48.480;9.258;2023-04-23T14:27:39;2.58;;;0.90;;
41755;SDS011;27435;48.480;9.258;2023-04-23T14:30:13;1.67;;;0.60;;
41755;SDS011;27435;48.480;9.258;2023-04-23T14:32:41;1.55;;;0.75;;
41755;SDS011;27435;48.480;9.258;2023-04-23T14:35:14;1.90;;;0.68;;
41755;SDS011;27435;48.480;9.258;2023-04-23T14:37:40;6.88;;;0.80;;
41755;SDS011;27435;48.480;9.258;2023-04-23T14:40:09;2.13;;;0.80;;
41755;SDS011;27435;48.480;9.258;2023-04-23T14:42:43;1.10;;;0.70;;
41755;SDS011;27435;48.480;9.258;2023-04-23T14:45:11;2.25;;;0.77;;
41755;SDS011;27435;48.480;9.258;2023-04-23T14:47:38;3.08;;;0.88;;
41755;SDS011;27435;48.480;9.258;2023-04-23T14:50:04;2.70;;;0.70;;
41755;SDS011;27435;48.480;9.258;2023-04-23T14:52:30;2.78;;;1.10;;